createdAt,value
2023-05-01T00:03:40.992Z,2.67
2023-05-01T00:08:43.772Z,2.57
2023-05-01T00:13:46.555Z,2.47
2023-05-01T00:18:49.226Z,2.38
2023-05-01T00:23:52.035Z,2.36
2023-05-01T00:28:54.569Z,2.39
2023-05-01T00:33:57.610Z,2.46
2023-05-01T00:39:00.275Z,2.49
2023-05-01T00:44:03.333Z,2.47
2023-05-01T00:49:05.908Z,2.45
2023-05-01T00:54:08.625Z,2.43
2023-05-01T00:59:11.520Z,2.41
2023-05-01T01:04:14.172Z,2.37
2023-05-01T01:09:57.832Z,2.30
2023-05-01T01:15:35.930Z,2.22
2023-05-01T01:20:49.994Z,2.19
2023-05-01T01:26:20.659Z,2.23
2023-05-01T01:32:01.496Z,2.23
2023-05-01T01:37:27.985Z,2.11
2023-05-01T01:42:44.821Z,2.02
2023-05-01T01:47:48.989Z,1.88
2023-05-01T01:52:54.547Z,1.81
2023-05-01T01:58:00.365Z,1.73
2023-05-01T02:03:03.892Z,1.70
2023-05-01T02:08:08.876Z,1.77
2023-05-01T02:13:14.735Z,1.81
2023-05-01T02:18:18.977Z,1.80
2023-05-01T02:23:22.931Z,1.70
2023-05-01T02:28:28.341Z,1.59
2023-05-01T02:33:31.118Z,1.49
2023-05-01T02:38:35.479Z,1.38
2023-05-01T02:43:42.206Z,1.25
2023-05-01T02:48:46.444Z,1.16
2023-05-01T02:53:50.020Z,1.15
2023-05-01T02:58:53.410Z,1.15
2023-05-01T03:03:56.018Z,1.14
2023-05-01T03:08:58.539Z,1.15
2023-05-01T03:14:01.146Z,1.16
2023-05-01T03:19:03.924Z,1.47
2023-05-01T03:24:07.199Z,1.99
2023-05-01T03:29:10.001Z,2.65
2023-05-01T03:34:12.553Z,3.39
2023-05-01T03:39:15.364Z,4.24
2023-05-01T03:44:17.938Z,5.02
2023-05-01T03:49:20.848Z,5.86
2023-05-01T03:54:23.575Z,6.82
2023-05-01T03:59:27.097Z,7.57
2023-05-01T04:04:30.018Z,8.33
2023-05-01T04:09:33.048Z,9.09
2023-05-01T04:14:35.896Z,9.89
2023-05-01T04:19:38.465Z,10.64
2023-05-01T04:24:41.103Z,11.39
2023-05-01T04:29:43.861Z,12.13
2023-05-01T04:34:46.489Z,12.90
2023-05-01T04:39:49.335Z,13.68
2023-05-01T04:44:51.929Z,14.34
2023-05-01T04:49:54.822Z,15.04
2023-05-01T04:54:57.936Z,15.54
2023-05-01T05:00:01.595Z,16.01
2023-05-01T05:05:04.449Z,16.78
2023-05-01T05:10:08.041Z,17.27
2023-05-01T05:15:11.400Z,17.62
2023-05-01T05:20:14.169Z,18.34
2023-05-01T05:25:16.953Z,18.85
2023-05-01T05:30:19.569Z,19.16
2023-05-01T05:35:22.415Z,19.55
2023-05-01T05:40:24.985Z,20.00
2023-05-01T05:45:27.601Z,20.28
2023-05-01T05:50:30.187Z,20.53
2023-05-01T05:55:32.762Z,20.71
2023-05-01T06:00:35.344Z,21.04
2023-05-01T06:05:38.025Z,21.21
2023-05-01T06:10:44.051Z,21.38
2023-05-01T06:15:47.390Z,21.62
2023-05-01T06:20:51.066Z,21.54
2023-05-01T06:25:53.623Z,21.51
2023-05-01T06:30:56.465Z,21.48
2023-05-01T06:35:59.892Z,21.53
2023-05-01T06:41:03.847Z,21.70
2023-05-01T06:46:06.422Z,21.79
2023-05-01T06:51:09.502Z,21.81
2023-05-01T06:56:12.072Z,21.72
2023-05-01T07:01:14.847Z,21.78
2023-05-01T07:06:17.645Z,22.06
2023-05-01T07:11:20.427Z,21.84
2023-05-01T07:16:23.104Z,21.89
2023-05-01T07:21:25.840Z,21.79
2023-05-01T07:26:28.387Z,21.83
2023-05-01T07:31:31.332Z,21.77
2023-05-01T07:36:34.415Z,21.78
2023-05-01T07:41:37.005Z,21.68
2023-05-01T07:46:39.638Z,21.50
2023-05-01T07:51:42.824Z,21.61
2023-05-01T07:56:46.329Z,21.58
2023-05-01T08:01:49.696Z,21.49
2023-05-01T08:06:52.448Z,21.42
2023-05-01T08:11:55.205Z,21.48
2023-05-01T08:16:57.861Z,21.26
2023-05-01T08:22:00.541Z,21.48
2023-05-01T08:27:03.436Z,21.56
2023-05-01T08:32:06.020Z,21.11
2023-05-01T08:37:08.586Z,21.31
2023-05-01T08:42:11.933Z,21.28
2023-05-01T08:47:17.846Z,21.39
2023-05-01T08:52:22.139Z,21.09
2023-05-01T08:57:27.308Z,21.01
2023-05-01T09:02:35.373Z,21.07
2023-05-01T09:07:39.684Z,21.07
2023-05-01T09:12:46.105Z,21.16
2023-05-01T09:17:48.778Z,21.17
2023-05-01T09:22:52.001Z,21.19
2023-05-01T09:27:56.940Z,21.23
2023-05-01T09:33:13.980Z,20.98
2023-05-01T09:38:25.700Z,20.77
2023-05-01T09:43:30.635Z,20.90
2023-05-01T09:48:35.697Z,20.90
2023-05-01T09:53:40.738Z,20.83
2023-05-01T09:58:44.496Z,20.69
2023-05-01T10:03:54.895Z,20.54
2023-05-01T10:08:58.066Z,20.41
2023-05-01T10:14:09.555Z,20.08
2023-05-01T10:19:17.353Z,20.06
2023-05-01T10:24:20.577Z,19.94
2023-05-01T10:29:24.659Z,19.54
2023-05-01T10:34:28.604Z,18.92
2023-05-01T10:39:36.836Z,18.40
2023-05-01T10:44:43.176Z,18.21
2023-05-01T10:50:10.739Z,17.92
2023-05-01T10:55:34.019Z,17.66
2023-05-01T11:00:37.205Z,17.31
2023-05-01T11:06:04.272Z,17.26
2023-05-01T11:11:25.546Z,17.31
2023-05-01T11:16:35.317Z,17.19
2023-05-01T11:21:40.693Z,17.15
2023-05-01T11:26:43.326Z,17.17
2023-05-01T11:31:48.686Z,17.29
2023-05-01T11:36:52.937Z,17.36
2023-05-01T11:42:09.833Z,17.34
2023-05-01T11:47:13.473Z,17.33
2023-05-01T11:52:16.330Z,17.48
2023-05-01T11:57:20.244Z,17.49
2023-05-01T12:02:23.023Z,17.51
2023-05-01T12:07:25.793Z,17.51
2023-05-01T12:12:28.479Z,17.38
2023-05-01T12:17:31.607Z,17.41
2023-05-01T12:22:34.316Z,17.55
2023-05-01T12:27:44.344Z,17.67
2023-05-01T12:32:46.981Z,17.77
2023-05-01T12:37:49.738Z,17.83
2023-05-01T12:42:58.916Z,17.80
2023-05-01T12:48:01.736Z,17.85
2023-05-01T12:53:05.224Z,17.87
2023-05-01T12:58:07.839Z,17.86
2023-05-01T13:03:10.691Z,17.82
2023-05-01T13:08:13.915Z,17.84
2023-05-01T13:13:28.578Z,17.87
2023-05-01T13:18:33.658Z,17.86
2023-05-01T13:23:39.466Z,17.79
2023-05-01T13:28:47.698Z,17.75
2023-05-01T13:33:54.203Z,17.63
2023-05-01T13:38:57.231Z,17.63
2023-05-01T13:44:00.153Z,17.59
2023-05-01T13:49:08.132Z,17.53
2023-05-01T13:54:12.506Z,17.60
2023-05-01T13:59:15.445Z,17.81
2023-05-01T14:04:21.120Z,17.94
2023-05-01T14:09:23.946Z,17.98
2023-05-01T14:14:26.521Z,17.95
2023-05-01T14:19:29.554Z,17.95
2023-05-01T14:24:37.111Z,17.90
2023-05-01T14:29:46.807Z,17.80
2023-05-01T14:34:49.411Z,17.76
2023-05-01T14:39:52.061Z,17.71
2023-05-01T14:44:54.698Z,17.65
2023-05-01T14:49:57.321Z,17.63
2023-05-01T14:55:00.098Z,17.51
2023-05-01T15:00:04.716Z,17.40
2023-05-01T15:05:07.886Z,17.42
2023-05-01T15:10:11.079Z,17.38
2023-05-01T15:15:13.718Z,17.36
2023-05-01T15:20:16.489Z,17.36
2023-05-01T15:25:19.165Z,17.32
2023-05-01T15:30:21.765Z,17.31
2023-05-01T15:35:24.444Z,17.18
2023-05-01T15:40:27.175Z,17.05
2023-05-01T15:45:29.942Z,16.99
2023-05-01T15:50:32.746Z,16.94
2023-05-01T15:55:35.520Z,16.87
2023-05-01T16:00:39.795Z,16.82
2023-05-01T16:05:47.228Z,16.79
2023-05-01T16:10:50.252Z,16.74
2023-05-01T16:15:52.864Z,16.64
2023-05-01T16:20:56.697Z,16.55
2023-05-01T16:25:59.320Z,16.44
2023-05-01T16:31:08.326Z,16.35
2023-05-01T16:36:17.518Z,16.24
2023-05-01T16:41:20.376Z,16.13
2023-05-01T16:46:23.414Z,16.07
2023-05-01T16:51:26.341Z,16.01
2023-05-01T16:56:28.946Z,15.94
2023-05-01T17:01:31.870Z,15.85
2023-05-01T17:06:34.600Z,15.74
2023-05-01T17:11:37.191Z,15.65
2023-05-01T17:16:40.507Z,15.55
2023-05-01T17:21:43.494Z,15.42
2023-05-01T17:26:46.757Z,15.29
2023-05-01T17:31:49.431Z,15.11
2023-05-01T17:36:52.309Z,14.94
2023-05-01T17:41:55.559Z,14.74
2023-05-01T17:46:58.266Z,14.55
2023-05-01T17:52:02.463Z,14.36
2023-05-01T17:57:05.744Z,14.17
2023-05-01T18:02:08.513Z,14.01
2023-05-01T18:07:12.011Z,13.84
2023-05-01T18:12:14.872Z,13.67
2023-05-01T18:17:22.905Z,13.53
2023-05-01T18:22:25.865Z,13.38
2023-05-01T18:27:28.673Z,13.26
2023-05-01T18:32:46.123Z,13.18
2023-05-01T18:37:51.120Z,13.10
2023-05-01T18:42:53.766Z,13.01
2023-05-01T18:47:56.468Z,12.93
2023-05-01T18:52:59.357Z,12.84
2023-05-01T18:58:02.025Z,12.74
2023-05-01T19:03:04.807Z,12.67
2023-05-01T19:08:09.004Z,12.62
2023-05-01T19:13:12.097Z,12.51
2023-05-01T19:18:16.101Z,12.41
2023-05-01T19:23:18.794Z,12.32
2023-05-01T19:28:21.482Z,12.24
2023-05-01T19:33:24.105Z,12.19
2023-05-01T19:38:26.741Z,12.12
2023-05-01T19:43:29.492Z,12.02
2023-05-01T19:48:32.158Z,11.92
2023-05-01T19:53:34.799Z,11.86
2023-05-01T19:58:38.990Z,11.79
2023-05-01T20:03:41.645Z,11.73
2023-05-01T20:08:44.589Z,11.65
2023-05-01T20:13:47.311Z,11.53
2023-05-01T20:18:49.904Z,11.41
2023-05-01T20:23:54.402Z,11.29
2023-05-01T20:28:57.206Z,11.21
2023-05-01T20:33:59.780Z,11.13
2023-05-01T20:39:02.425Z,11.06
2023-05-01T20:44:05.332Z,11.01
2023-05-01T20:49:10.166Z,10.95
2023-05-01T20:54:12.809Z,10.87
2023-05-01T20:59:15.453Z,10.77
2023-05-01T21:04:19.379Z,10.66
2023-05-01T21:09:22.075Z,10.56
2023-05-01T21:14:25.015Z,10.48
2023-05-01T21:19:27.870Z,10.42
2023-05-01T21:24:30.797Z,10.36
2023-05-01T21:29:33.637Z,10.31
2023-05-01T21:34:36.258Z,10.26
2023-05-01T21:39:38.884Z,10.25
2023-05-01T21:44:42.089Z,10.25
2023-05-01T21:49:44.673Z,10.21
2023-05-01T21:54:47.325Z,10.12
2023-05-01T21:59:49.964Z,10.06
2023-05-01T22:04:54.722Z,9.99
2023-05-01T22:09:57.454Z,9.90
2023-05-01T22:15:00.522Z,9.81
2023-05-01T22:20:07.935Z,9.73
2023-05-01T22:25:12.006Z,9.65
2023-05-01T22:30:14.649Z,9.66
2023-05-01T22:35:17.277Z,9.69
2023-05-01T22:40:19.954Z,9.72
2023-05-01T22:45:22.605Z,9.85
2023-05-01T22:50:25.340Z,9.96
2023-05-01T22:55:28.354Z,10.03
2023-05-01T23:00:31.233Z,10.05
2023-05-01T23:05:33.758Z,10.07
2023-05-01T23:10:42.027Z,10.07
2023-05-01T23:15:47.247Z,10.08
2023-05-01T23:20:52.490Z,10.10
2023-05-01T23:25:55.429Z,10.13
2023-05-01T23:31:03.355Z,10.16
2023-05-01T23:36:10.363Z,10.19
2023-05-01T23:41:15.285Z,10.19
2023-05-01T23:46:18.089Z,10.19
2023-05-01T23:51:20.830Z,10.19
2023-05-01T23:56:23.443Z,10.14
